sensor_id;sensor_type;location;lat;lon;timestamp;P1;durP1;ratioP1;P2;durP2;ratioP2
3101;SDS011;1561;42.666;23.392;2022-10-03T00:02:35;2.30;;;2.20;;
3101;SDS011;1561;42.666;23.392;2022-10-03T00:05:28;2.13;;;2.03;;
3101;SDS011;1561;42.666;23.392;2022-10-03T00:08:13;1.87;;;1.77;;
3101;SDS011;1561;42.666;23.392;2022-10-03T00:10:56;2.50;;;2.30;;
3101;SDS011;1561;42.666;23.392;2022-10-03T00:13:38;3.07;;;1.83;;
3101;SDS011;1561;42.666;23.392;2022-10-03T00:16:21;4.30;;;2.27;;
3101;SDS011;1561;42.666;23.392;2022-10-03T00:19:01;3.43;;;1.67;;
3101;SDS011;1561;42.666;23.392;2022-10-03T00:21:40;7.80;;;2.00;;
3101;SDS011;1561;42.666;23.392;2022-10-03T00:24:21;2.27;;;1.97;;
3101;SDS011;1561;42.666;23.392;2022-10-03T00:27:00;2.73;;;2.40;;
3101;SDS011;1561;42.666;23.392;2022-10-03T00:29:39;2.17;;;1.90;;
3101;SDS011;1561;42.666;23.392;2022-10-03T00:32:40;1.73;;;1.60;;
3101;SDS011;1561;42.666;23.392;2022-10-03T00:35:26;3.20;;;2.50;;
3101;SDS011;1561;42.666;23.392;2022-10-03T00:38:14;3.77;;;2.53;;
3101;SDS011;1561;42.666;23.392;2022-10-03T00:41:07;5.00;;;2.53;;
3101;SDS011;1561;42.666;23.392;2022-10-03T00:47:02;3.00;;;2.80;;
3101;SDS011;1561;42.666;23.392;2022-10-03T00:49:57;4.97;;;4.50;;
3101;SDS011;1561;42.666;23.392;2022-10-03T00:53:00;4.83;;;4.33;;
3101;SDS011;1561;42.666;23.392;2022-10-03T00:55:45;4.40;;;4.00;;
3101;SDS011;1561;42.666;23.392;2022-10-03T00:58:26;8.10;;;4.03;;
3101;SDS011;1561;42.666;23.392;2022-10-03T01:01:20;4.90;;;3.73;;
3101;SDS011;1561;42.666;23.392;2022-10-03T01:03:54;4.30;;;4.00;;
3101;SDS011;1561;42.666;23.392;2022-10-03T01:06:46;4.33;;;4.03;;
3101;SDS011;1561;42.666;23.392;2022-10-03T01:09:25;4.70;;;3.60;;
3101;SDS011;1561;42.666;23.392;2022-10-03T01:12:12;5.57;;;3.70;;
3101;SDS011;1561;42.666;23.392;2022-10-03T01:15:02;5.00;;;4.13;;
3101;SDS011;1561;42.666;23.392;2022-10-03T01:17:49;4.87;;;4.37;;
3101;SDS011;1561;42.666;23.392;2022-10-03T01:20:38;5.40;;;4.40;;
3101;SDS011;1561;42.666;23.392;2022-10-03T01:23:37;4.37;;;3.97;;
3101;SDS011;1561;42.666;23.392;2022-10-03T01:26:25;4.40;;;4.00;;
3101;SDS011;1561;42.666;23.392;2022-10-03T01:29:16;4.23;;;3.57;;
3101;SDS011;1561;42.666;23.392;2022-10-03T01:32:09;3.73;;;3.43;;
3101;SDS011;1561;42.666;23.392;2022-10-03T01:34:45;3.80;;;3.00;;
3101;SDS011;1561;42.666;23.392;2022-10-03T01:37:22;3.80;;;3.50;;
3101;SDS011;1561;42.666;23.392;2022-10-03T01:39:58;4.20;;;3.80;;
3101;SDS011;1561;42.666;23.392;2022-10-03T01:42:43;4.13;;;3.73;;
3101;SDS011;1561;42.666;23.392;2022-10-03T01:45:34;4.33;;;3.93;;
3101;SDS011;1561;42.666;23.392;2022-10-03T01:48:16;5.30;;;2.90;;
3101;SDS011;1561;42.666;23.392;2022-10-03T01:50:56;3.63;;;3.23;;
3101;SDS011;1561;42.666;23.392;2022-10-03T01:53:32;2.83;;;2.60;;
3101;SDS011;1561;42.666;23.392;2022-10-03T01:56:14;3.43;;;2.60;;
3101;SDS011;1561;42.666;23.392;2022-10-03T01:58:56;3.00;;;2.80;;
3101;SDS011;1561;42.666;23.392;2022-10-03T02:01:33;2.80;;;2.60;;
3101;SDS011;1561;42.666;23.392;2022-10-03T02:04:13;5.73;;;3.20;;
3101;SDS011;1561;42.666;23.392;2022-10-03T02:07:03;3.13;;;2.87;;
3101;SDS011;1561;42.666;23.392;2022-10-03T02:09:47;3.50;;;2.90;;
3101;SDS011;1561;42.666;23.392;2022-10-03T02:12:28;5.33;;;3.87;;
3101;SDS011;1561;42.666;23.392;2022-10-03T02:15:12;3.97;;;3.67;;
3101;SDS011;1561;42.666;23.392;2022-10-03T02:17:54;4.40;;;3.57;;
3101;SDS011;1561;42.666;23.392;2022-10-03T02:20:31;3.57;;;3.27;;
3101;SDS011;1561;42.666;23.392;2022-10-03T02:26:19;4.97;;;4.00;;
3101;SDS011;1561;42.666;23.392;2022-10-03T02:29:10;6.43;;;4.73;;
3101;SDS011;1561;42.666;23.392;2022-10-03T02:32:02;5.27;;;4.30;;
3101;SDS011;1561;42.666;23.392;2022-10-03T02:34:55;6.37;;;4.40;;
3101;SDS011;1561;42.666;23.392;2022-10-03T02:37:53;6.07;;;4.87;;
3101;SDS011;1561;42.666;23.392;2022-10-03T02:40:50;6.30;;;5.20;;
3101;SDS011;1561;42.666;23.392;2022-10-03T02:44:10;5.70;;;5.20;;
3101;SDS011;1561;42.666;23.392;2022-10-03T02:47:10;5.10;;;4.60;;
3101;SDS011;1561;42.666;23.392;2022-10-03T02:50:39;8.20;;;6.20;;
3101;SDS011;1561;42.666;23.392;2022-10-03T03:00:04;13.10;;;6.87;;
3101;SDS011;1561;42.666;23.392;2022-10-03T03:09:34;7.27;;;5.67;;
3101;SDS011;1561;42.666;23.392;2022-10-03T03:15:36;7.97;;;5.90;;
3101;SDS011;1561;42.666;23.392;2022-10-03T03:21:45;6.63;;;5.50;;
3101;SDS011;1561;42.666;23.392;2022-10-03T03:24:27;6.33;;;5.67;;
3101;SDS011;1561;42.666;23.392;2022-10-03T03:27:22;8.63;;;6.47;;
3101;SDS011;1561;42.666;23.392;2022-10-03T03:30:12;9.00;;;6.53;;
3101;SDS011;1561;42.666;23.392;2022-10-03T03:32:51;6.50;;;5.90;;
3101;SDS011;1561;42.666;23.392;2022-10-03T03:35:32;9.33;;;6.43;;
3101;SDS011;1561;42.666;23.392;2022-10-03T03:38:16;7.07;;;6.00;;
3101;SDS011;1561;42.666;23.392;2022-10-03T03:41:08;6.30;;;5.70;;
3101;SDS011;1561;42.666;23.392;2022-10-03T03:47:09;9.83;;;6.10;;
3101;SDS011;1561;42.666;23.392;2022-10-03T03:49:50;7.63;;;5.47;;
3101;SDS011;1561;42.666;23.392;2022-10-03T03:52:40;6.00;;;5.33;;
3101;SDS011;1561;42.666;23.392;2022-10-03T03:58:30;6.77;;;5.90;;
3101;SDS011;1561;42.666;23.392;2022-10-03T04:01:04;8.73;;;6.30;;
3101;SDS011;1561;42.666;23.392;2022-10-03T04:03:52;13.43;;;6.97;;
3101;SDS011;1561;42.666;23.392;2022-10-03T04:06:40;12.73;;;8.40;;
3101;SDS011;1561;42.666;23.392;2022-10-03T04:09:27;9.40;;;7.60;;
3101;SDS011;1561;42.666;23.392;2022-10-03T04:12:15;12.90;;;7.83;;
3101;SDS011;1561;42.666;23.392;2022-10-03T04:18:01;8.93;;;7.10;;
3101;SDS011;1561;42.666;23.392;2022-10-03T04:21:04;9.40;;;7.33;;
3101;SDS011;1561;42.666;23.392;2022-10-03T04:23:50;11.00;;;6.77;;
3101;SDS011;1561;42.666;23.392;2022-10-03T04:26:41;8.80;;;7.90;;
3101;SDS011;1561;42.666;23.392;2022-10-03T04:29:35;17.23;;;9.33;;
3101;SDS011;1561;42.666;23.392;2022-10-03T04:32:29;12.93;;;8.70;;
3101;SDS011;1561;42.666;23.392;2022-10-03T04:38:53;16.40;;;8.33;;
3101;SDS011;1561;42.666;23.392;2022-10-03T04:41:36;11.20;;;8.17;;
3101;SDS011;1561;42.666;23.392;2022-10-03T04:44:17;10.10;;;8.80;;
3101;SDS011;1561;42.666;23.392;2022-10-03T04:46:59;14.20;;;9.60;;
3101;SDS011;1561;42.666;23.392;2022-10-03T04:49:36;13.10;;;10.73;;
3101;SDS011;1561;42.666;23.392;2022-10-03T04:52:17;17.83;;;11.07;;
3101;SDS011;1561;42.666;23.392;2022-10-03T04:54:56;10.10;;;9.10;;
3101;SDS011;1561;42.666;23.392;2022-10-03T04:57:41;12.57;;;9.00;;
3101;SDS011;1561;42.666;23.392;2022-10-03T05:00:24;12.13;;;9.30;;
3101;SDS011;1561;42.666;23.392;2022-10-03T05:03:02;11.10;;;8.73;;
3101;SDS011;1561;42.666;23.392;2022-10-03T05:05:47;12.50;;;8.60;;
3101;SDS011;1561;42.666;23.392;2022-10-03T05:08:27;12.13;;;9.93;;
3101;SDS011;1561;42.666;23.392;2022-10-03T05:11:09;10.00;;;8.90;;
3101;SDS011;1561;42.666;23.392;2022-10-03T05:13:52;11.47;;;8.33;;
3101;SDS011;1561;42.666;23.392;2022-10-03T05:16:29;8.87;;;8.07;;
3101;SDS011;1561;42.666;23.392;2022-10-03T05:19:09;18.20;;;12.00;;
3101;SDS011;1561;42.666;23.392;2022-10-03T05:22:07;11.47;;;9.33;;
3101;SDS011;1561;42.666;23.392;2022-10-03T05:24:48;11.13;;;8.37;;
3101;SDS011;1561;42.666;23.392;2022-10-03T05:27:28;13.23;;;9.10;;
3101;SDS011;1561;42.666;23.392;2022-10-03T05:30:13;11.67;;;8.13;;
3101;SDS011;1561;42.666;23.392;2022-10-03T05:33:10;12.37;;;8.87;;
3101;SDS011;1561;42.666;23.392;2022-10-03T05:36:03;11.67;;;8.33;;
3101;SDS011;1561;42.666;23.392;2022-10-03T05:44:42;15.40;;;10.70;;
3101;SDS011;1561;42.666;23.392;2022-10-03T05:47:12;16.37;;;10.70;;
3101;SDS011;1561;42.666;23.392;2022-10-03T05:57:03;15.13;;;10.57;;
3101;SDS011;1561;42.666;23.392;2022-10-03T05:59:51;13.37;;;10.13;;
3101;SDS011;1561;42.666;23.392;2022-10-03T06:05:40;17.53;;;13.20;;
3101;SDS011;1561;42.666;23.392;2022-10-03T06:11:35;16.93;;;10.80;;
3101;SDS011;1561;42.666;23.392;2022-10-03T06:14:28;15.57;;;10.57;;
3101;SDS011;1561;42.666;23.392;2022-10-03T06:23:32;17.20;;;11.93;;
3101;SDS011;1561;42.666;23.392;2022-10-03T06:55:12;13.80;;;10.03;;
3101;SDS011;1561;42.666;23.392;2022-10-03T07:04:21;9.63;;;8.63;;
3101;SDS011;1561;42.666;23.392;2022-10-03T07:07:18;9.80;;;8.90;;
3101;SDS011;1561;42.666;23.392;2022-10-03T07:19:39;9.57;;;8.67;;
3101;SDS011;1561;42.666;23.392;2022-10-03T07:25:49;11.67;;;8.73;;
3101;SDS011;1561;42.666;23.392;2022-10-03T07:31:41;11.10;;;9.90;;
3101;SDS011;1561;42.666;23.392;2022-10-03T07:37:23;11.47;;;10.20;;
3101;SDS011;1561;42.666;23.392;2022-10-03T07:40:34;12.77;;;11.00;;
3101;SDS011;1561;42.666;23.392;2022-10-03T07:57:02;13.03;;;10.30;;
3101;SDS011;1561;42.666;23.392;2022-10-03T08:00:00;15.90;;;10.83;;
3101;SDS011;1561;42.666;23.392;2022-10-03T08:05:58;18.00;;;13.30;;
3101;SDS011;1561;42.666;23.392;2022-10-03T08:15:21;12.70;;;10.40;;
3101;SDS011;1561;42.666;23.392;2022-10-03T08:18:19;11.73;;;10.53;;
3101;SDS011;1561;42.666;23.392;2022-10-03T08:21:33;13.20;;;9.90;;
3101;SDS011;1561;42.666;23.392;2022-10-03T08:24:26;12.97;;;11.20;;
3101;SDS011;1561;42.666;23.392;2022-10-03T08:27:33;11.90;;;9.87;;
3101;SDS011;1561;42.666;23.392;2022-10-03T08:37:10;12.80;;;9.07;;
3101;SDS011;1561;42.666;23.392;2022-10-03T08:43:11;10.83;;;6.90;;
3101;SDS011;1561;42.666;23.392;2022-10-03T08:46:20;7.43;;;6.77;;
3101;SDS011;1561;42.666;23.392;2022-10-03T08:49:16;13.43;;;9.10;;
3101;SDS011;1561;42.666;23.392;2022-10-03T08:52:25;11.63;;;6.00;;
3101;SDS011;1561;42.666;23.392;2022-10-03T08:58:26;12.47;;;5.70;;
3101;SDS011;1561;42.666;23.392;2022-10-03T09:01:31;5.57;;;4.87;;
3101;SDS011;1561;42.666;23.392;2022-10-03T09:07:37;3.37;;;3.10;;
3101;SDS011;1561;42.666;23.392;2022-10-03T09:13:36;4.40;;;3.87;;
3101;SDS011;1561;42.666;23.392;2022-10-03T09:16:50;3.90;;;3.57;;
3101;SDS011;1561;42.666;23.392;2022-10-03T09:29:16;3.77;;;3.47;;
3101;SDS011;1561;42.666;23.392;2022-10-03T09:32:15;4.03;;;3.60;;
3101;SDS011;1561;42.666;23.392;2022-10-03T09:44:38;8.00;;;5.63;;
3101;SDS011;1561;42.666;23.392;2022-10-03T09:51:05;3.50;;;3.20;;
3101;SDS011;1561;42.666;23.392;2022-10-03T09:57:28;4.60;;;4.20;;
3101;SDS011;1561;42.666;23.392;2022-10-03T10:11:02;4.50;;;3.73;;
3101;SDS011;1561;42.666;23.392;2022-10-03T10:20:22;3.60;;;3.30;;
3101;SDS011;1561;42.666;23.392;2022-10-03T10:23:07;4.67;;;3.60;;
3101;SDS011;1561;42.666;23.392;2022-10-03T10:29:01;3.60;;;3.40;;
3101;SDS011;1561;42.666;23.392;2022-10-03T10:38:26;3.53;;;3.10;;
3101;SDS011;1561;42.666;23.392;2022-10-03T10:47:44;3.00;;;2.80;;
3101;SDS011;1561;42.666;23.392;2022-10-03T10:57:25;2.20;;;2.10;;
3101;SDS011;1561;42.666;23.392;2022-10-03T11:00:17;2.53;;;2.30;;
3101;SDS011;1561;42.666;23.392;2022-10-03T11:09:27;3.28;;;2.88;;
3101;SDS011;1561;42.666;23.392;2022-10-03T11:18:41;2.85;;;2.45;;
3101;SDS011;1561;42.666;23.392;2022-10-03T11:43:53;4.43;;;4.03;;
3101;SDS011;1561;42.666;23.392;2022-10-03T11:55:58;4.60;;;4.20;;
3101;SDS011;1561;42.666;23.392;2022-10-03T12:04:59;4.77;;;4.40;;
3101;SDS011;1561;42.666;23.392;2022-10-03T12:07:43;6.43;;;4.60;;
3101;SDS011;1561;42.666;23.392;2022-10-03T12:10:34;5.80;;;5.30;;
3101;SDS011;1561;42.666;23.392;2022-10-03T12:13:13;4.87;;;4.47;;
3101;SDS011;1561;42.666;23.392;2022-10-03T12:15:50;4.60;;;4.20;;
3101;SDS011;1561;42.666;23.392;2022-10-03T12:18:30;5.20;;;4.77;;
3101;SDS011;1561;42.666;23.392;2022-10-03T12:21:27;4.83;;;4.43;;
3101;SDS011;1561;42.666;23.392;2022-10-03T12:24:14;5.73;;;5.23;;
3101;SDS011;1561;42.666;23.392;2022-10-03T12:27:05;5.90;;;5.40;;
3101;SDS011;1561;42.666;23.392;2022-10-03T12:29:43;5.67;;;5.27;;
3101;SDS011;1561;42.666;23.392;2022-10-03T12:32:29;5.87;;;5.23;;
3101;SDS011;1561;42.666;23.392;2022-10-03T12:35:11;6.13;;;5.53;;
3101;SDS011;1561;42.666;23.392;2022-10-03T12:38:00;4.57;;;4.23;;
3101;SDS011;1561;42.666;23.392;2022-10-03T12:40:43;4.80;;;4.40;;
3101;SDS011;1561;42.666;23.392;2022-10-03T12:43:24;5.63;;;4.73;;
3101;SDS011;1561;42.666;23.392;2022-10-03T12:46:16;4.77;;;4.47;;
3101;SDS011;1561;42.666;23.392;2022-10-03T12:49:02;5.20;;;4.80;;
3101;SDS011;1561;42.666;23.392;2022-10-03T12:51:51;4.73;;;4.43;;
3101;SDS011;1561;42.666;23.392;2022-10-03T12:54:35;5.77;;;5.37;;
3101;SDS011;1561;42.666;23.392;2022-10-03T12:57:36;5.63;;;5.23;;
3101;SDS011;1561;42.666;23.392;2022-10-03T13:00:22;6.20;;;5.70;;
3101;SDS011;1561;42.666;23.392;2022-10-03T13:03:16;5.50;;;5.10;;
3101;SDS011;1561;42.666;23.392;2022-10-03T13:06:20;6.10;;;5.70;;
3101;SDS011;1561;42.666;23.392;2022-10-03T13:09:22;6.13;;;5.57;;
3101;SDS011;1561;42.666;23.392;2022-10-03T13:12:01;6.30;;;5.70;;
3101;SDS011;1561;42.666;23.392;2022-10-03T13:14:39;5.40;;;5.00;;
3101;SDS011;1561;42.666;23.392;2022-10-03T13:17:44;5.40;;;5.00;;
3101;SDS011;1561;42.666;23.392;2022-10-03T13:20:28;6.13;;;5.60;;
3101;SDS011;1561;42.666;23.392;2022-10-03T13:23:17;5.57;;;5.10;;
3101;SDS011;1561;42.666;23.392;2022-10-03T13:26:06;5.70;;;5.23;;
3101;SDS011;1561;42.666;23.392;2022-10-03T13:31:49;5.20;;;4.80;;
3101;SDS011;1561;42.666;23.392;2022-10-03T13:34:43;5.50;;;5.10;;
3101;SDS011;1561;42.666;23.392;2022-10-03T13:38:05;4.50;;;4.10;;
3101;SDS011;1561;42.666;23.392;2022-10-03T13:40:54;3.67;;;3.47;;
3101;SDS011;1561;42.666;23.392;2022-10-03T13:43:37;3.60;;;3.30;;
3101;SDS011;1561;42.666;23.392;2022-10-03T13:46:56;4.77;;;4.37;;
3101;SDS011;1561;42.666;23.392;2022-10-03T13:49:37;4.03;;;3.67;;
3101;SDS011;1561;42.666;23.392;2022-10-03T13:52:21;4.93;;;4.53;;
3101;SDS011;1561;42.666;23.392;2022-10-03T14:01:36;4.30;;;4.00;;
3101;SDS011;1561;42.666;23.392;2022-10-03T14:04:26;5.50;;;4.57;;
3101;SDS011;1561;42.666;23.392;2022-10-03T14:07:22;5.70;;;5.20;;
3101;SDS011;1561;42.666;23.392;2022-10-03T14:10:04;5.40;;;5.00;;
3101;SDS011;1561;42.666;23.392;2022-10-03T14:13:05;5.87;;;4.70;;
3101;SDS011;1561;42.666;23.392;2022-10-03T14:15:45;7.40;;;3.90;;
3101;SDS011;1561;42.666;23.392;2022-10-03T14:18:38;6.60;;;4.20;;
3101;SDS011;1561;42.666;23.392;2022-10-03T14:21:20;4.53;;;4.13;;
3101;SDS011;1561;42.666;23.392;2022-10-03T14:24:13;3.10;;;2.90;;
3101;SDS011;1561;42.666;23.392;2022-10-03T14:26:55;3.60;;;3.37;;
3101;SDS011;1561;42.666;23.392;2022-10-03T14:29:37;4.50;;;4.10;;
3101;SDS011;1561;42.666;23.392;2022-10-03T14:32:16;5.23;;;3.70;;
3101;SDS011;1561;42.666;23.392;2022-10-03T14:34:51;4.30;;;3.90;;
3101;SDS011;1561;42.666;23.392;2022-10-03T14:37:45;3.90;;;3.37;;
3101;SDS011;1561;42.666;23.392;2022-10-03T14:40:23;3.20;;;2.90;;
3101;SDS011;1561;42.666;23.392;2022-10-03T14:43:02;3.67;;;3.47;;
3101;SDS011;1561;42.666;23.392;2022-10-03T14:45:49;3.43;;;3.13;;
3101;SDS011;1561;42.666;23.392;2022-10-03T14:48:23;3.97;;;3.67;;
3101;SDS011;1561;42.666;23.392;2022-10-03T14:51:00;3.10;;;2.90;;
3101;SDS011;1561;42.666;23.392;2022-10-03T14:53:35;4.10;;;3.80;;
3101;SDS011;1561;42.666;23.392;2022-10-03T14:56:05;5.33;;;4.10;;
3101;SDS011;1561;42.666;23.392;2022-10-03T14:58:49;4.47;;;4.07;;
3101;SDS011;1561;42.666;23.392;2022-10-03T15:01:24;5.33;;;4.83;;
3101;SDS011;1561;42.666;23.392;2022-10-03T15:03:59;5.20;;;4.70;;
3101;SDS011;1561;42.666;23.392;2022-10-03T15:06:36;5.57;;;5.00;;
3101;SDS011;1561;42.666;23.392;2022-10-03T15:09:20;5.20;;;4.80;;
3101;SDS011;1561;42.666;23.392;2022-10-03T15:11:58;4.40;;;4.10;;
3101;SDS011;1561;42.666;23.392;2022-10-03T15:14:34;5.50;;;5.10;;
3101;SDS011;1561;42.666;23.392;2022-10-03T15:17:14;4.60;;;4.30;;
3101;SDS011;1561;42.666;23.392;2022-10-03T15:19:48;5.87;;;5.10;;
3101;SDS011;1561;42.666;23.392;2022-10-03T15:22:27;3.73;;;3.53;;
3101;SDS011;1561;42.666;23.392;2022-10-03T15:25:00;6.10;;;4.50;;
3101;SDS011;1561;42.666;23.392;2022-10-03T15:27:37;4.23;;;3.93;;
3101;SDS011;1561;42.666;23.392;2022-10-03T15:30:14;3.83;;;3.63;;
3101;SDS011;1561;42.666;23.392;2022-10-03T15:33:00;3.53;;;3.27;;
3101;SDS011;1561;42.666;23.392;2022-10-03T15:35:36;4.33;;;4.03;;
3101;SDS011;1561;42.666;23.392;2022-10-03T15:38:15;4.47;;;4.17;;
3101;SDS011;1561;42.666;23.392;2022-10-03T15:41:03;4.60;;;4.30;;
3101;SDS011;1561;42.666;23.392;2022-10-03T15:43:35;4.10;;;3.80;;
3101;SDS011;1561;42.666;23.392;2022-10-03T15:46:12;4.53;;;4.13;;
3101;SDS011;1561;42.666;23.392;2022-10-03T15:49:03;4.30;;;3.90;;
3101;SDS011;1561;42.666;23.392;2022-10-03T15:51:39;4.70;;;4.40;;
3101;SDS011;1561;42.666;23.392;2022-10-03T15:54:13;4.50;;;4.20;;
3101;SDS011;1561;42.666;23.392;2022-10-03T15:56:50;4.87;;;4.40;;
3101;SDS011;1561;42.666;23.392;2022-10-03T15:59:25;4.53;;;4.13;;
3101;SDS011;1561;42.666;23.392;2022-10-03T16:02:14;5.20;;;4.70;;
3101;SDS011;1561;42.666;23.392;2022-10-03T16:04:59;4.50;;;4.13;;
3101;SDS011;1561;42.666;23.392;2022-10-03T16:07:42;4.40;;;4.00;;
3101;SDS011;1561;42.666;23.392;2022-10-03T16:10:19;4.70;;;4.30;;
3101;SDS011;1561;42.666;23.392;2022-10-03T16:12:54;5.60;;;5.10;;
3101;SDS011;1561;42.666;23.392;2022-10-03T16:15:32;4.67;;;4.00;;
3101;SDS011;1561;42.666;23.392;2022-10-03T16:21:40;3.83;;;3.57;;
3101;SDS011;1561;42.666;23.392;2022-10-03T16:24:41;4.50;;;4.20;;
3101;SDS011;1561;42.666;23.392;2022-10-03T16:27:26;4.50;;;4.13;;
3101;SDS011;1561;42.666;23.392;2022-10-03T16:30:13;4.10;;;3.80;;
3101;SDS011;1561;42.666;23.392;2022-10-03T16:32:50;3.57;;;3.37;;
3101;SDS011;1561;42.666;23.392;2022-10-03T16:35:29;3.83;;;3.20;;
3101;SDS011;1561;42.666;23.392;2022-10-03T16:40:57;4.10;;;3.80;;
3101;SDS011;1561;42.666;23.392;2022-10-03T16:44:03;4.00;;;3.70;;
3101;SDS011;1561;42.666;23.392;2022-10-03T16:49:42;5.33;;;3.90;;
3101;SDS011;1561;42.666;23.392;2022-10-03T16:52:45;3.43;;;3.13;;
3101;SDS011;1561;42.666;23.392;2022-10-03T16:55:24;4.10;;;3.80;;
3101;SDS011;1561;42.666;23.392;2022-10-03T16:57:58;3.47;;;3.27;;
3101;SDS011;1561;42.666;23.392;2022-10-03T17:00:38;3.97;;;3.57;;
3101;SDS011;1561;42.666;23.392;2022-10-03T17:03:15;3.60;;;3.30;;
3101;SDS011;1561;42.666;23.392;2022-10-03T17:05:53;4.03;;;3.63;;
3101;SDS011;1561;42.666;23.392;2022-10-03T17:08:25;5.47;;;3.80;;
3101;SDS011;1561;42.666;23.392;2022-10-03T17:11:06;7.57;;;4.20;;
3101;SDS011;1561;42.666;23.392;2022-10-03T17:13:38;5.80;;;4.00;;
3101;SDS011;1561;42.666;23.392;2022-10-03T17:16:28;4.10;;;3.73;;
3101;SDS011;1561;42.666;23.392;2022-10-03T17:19:25;3.40;;;3.20;;
3101;SDS011;1561;42.666;23.392;2022-10-03T17:22:19;3.53;;;3.23;;
3101;SDS011;1561;42.666;23.392;2022-10-03T17:24:51;3.70;;;3.20;;
3101;SDS011;1561;42.666;23.392;2022-10-03T17:27:35;5.43;;;3.80;;
3101;SDS011;1561;42.666;23.392;2022-10-03T17:30:12;3.60;;;3.30;;
3101;SDS011;1561;42.666;23.392;2022-10-03T17:33:12;5.00;;;3.47;;
3101;SDS011;1561;42.666;23.392;2022-10-03T17:35:52;6.50;;;4.03;;
3101;SDS011;1561;42.666;23.392;2022-10-03T17:38:42;5.30;;;4.00;;
3101;SDS011;1561;42.666;23.392;2022-10-03T17:41:20;3.70;;;3.40;;
3101;SDS011;1561;42.666;23.392;2022-10-03T17:44:00;3.83;;;3.40;;
3101;SDS011;1561;42.666;23.392;2022-10-03T17:46:42;5.90;;;3.83;;
3101;SDS011;1561;42.666;23.392;2022-10-03T17:49:19;4.43;;;3.50;;
3101;SDS011;1561;42.666;23.392;2022-10-03T17:51:55;4.37;;;3.97;;
3101;SDS011;1561;42.666;23.392;2022-10-03T17:54:24;3.87;;;3.57;;
3101;SDS011;1561;42.666;23.392;2022-10-03T17:56:56;5.20;;;3.50;;
3101;SDS011;1561;42.666;23.392;2022-10-03T17:59:33;5.00;;;4.40;;
3101;SDS011;1561;42.666;23.392;2022-10-03T18:02:14;6.10;;;3.90;;
3101;SDS011;1561;42.666;23.392;2022-10-03T18:04:48;5.03;;;3.63;;
3101;SDS011;1561;42.666;23.392;2022-10-03T18:07:21;3.50;;;3.30;;
3101;SDS011;1561;42.666;23.392;2022-10-03T18:09:54;3.97;;;3.67;;
3101;SDS011;1561;42.666;23.392;2022-10-03T18:12:22;4.20;;;3.80;;
3101;SDS011;1561;42.666;23.392;2022-10-03T18:21:13;3.50;;;3.20;;
3101;SDS011;1561;42.666;23.392;2022-10-03T18:23:57;3.80;;;3.40;;
3101;SDS011;1561;42.666;23.392;2022-10-03T18:26:42;3.73;;;3.43;;
3101;SDS011;1561;42.666;23.392;2022-10-03T18:29:18;3.63;;;3.30;;
3101;SDS011;1561;42.666;23.392;2022-10-03T18:31:54;4.27;;;3.27;;
3101;SDS011;1561;42.666;23.392;2022-10-03T18:34:28;3.47;;;3.20;;
3101;SDS011;1561;42.666;23.392;2022-10-03T18:37:13;3.60;;;3.30;;
3101;SDS011;1561;42.666;23.392;2022-10-03T18:40:02;3.20;;;3.00;;
3101;SDS011;1561;42.666;23.392;2022-10-03T18:42:40;3.30;;;3.00;;
3101;SDS011;1561;42.666;23.392;2022-10-03T18:45:18;2.83;;;2.63;;
3101;SDS011;1561;42.666;23.392;2022-10-03T18:47:52;3.20;;;2.97;;
3101;SDS011;1561;42.666;23.392;2022-10-03T18:50:31;4.03;;;3.17;;
3101;SDS011;1561;42.666;23.392;2022-10-03T18:53:15;3.70;;;3.17;;
3101;SDS011;1561;42.666;23.392;2022-10-03T18:55:53;3.70;;;2.83;;
3101;SDS011;1561;42.666;23.392;2022-10-03T18:58:25;4.40;;;3.13;;
3101;SDS011;1561;42.666;23.392;2022-10-03T19:00:58;3.10;;;2.80;;
3101;SDS011;1561;42.666;23.392;2022-10-03T19:03:32;3.20;;;2.63;;
3101;SDS011;1561;42.666;23.392;2022-10-03T19:06:14;2.93;;;2.50;;
3101;SDS011;1561;42.666;23.392;2022-10-03T19:08:57;2.97;;;2.67;;
3101;SDS011;1561;42.666;23.392;2022-10-03T19:11:27;2.90;;;2.70;;
3101;SDS011;1561;42.666;23.392;2022-10-03T19:14:05;3.17;;;2.60;;
3101;SDS011;1561;42.666;23.392;2022-10-03T19:19:32;8.80;;;2.73;;
3101;SDS011;1561;42.666;23.392;2022-10-03T19:22:14;3.93;;;3.10;;
3101;SDS011;1561;42.666;23.392;2022-10-03T19:27:51;3.50;;;2.70;;
3101;SDS011;1561;42.666;23.392;2022-10-03T19:30:23;5.27;;;3.10;;
3101;SDS011;1561;42.666;23.392;2022-10-03T19:32:52;6.60;;;3.17;;
3101;SDS011;1561;42.666;23.392;2022-10-03T19:35:23;3.10;;;2.80;;
3101;SDS011;1561;42.666;23.392;2022-10-03T19:37:52;5.07;;;3.20;;
3101;SDS011;1561;42.666;23.392;2022-10-03T19:40:29;3.90;;;3.13;;
3101;SDS011;1561;42.666;23.392;2022-10-03T19:43:16;3.30;;;3.03;;
3101;SDS011;1561;42.666;23.392;2022-10-03T19:45:56;3.60;;;2.97;;
3101;SDS011;1561;42.666;23.392;2022-10-03T19:48:35;3.33;;;3.03;;
3101;SDS011;1561;42.666;23.392;2022-10-03T19:51:13;5.53;;;3.07;;
3101;SDS011;1561;42.666;23.392;2022-10-03T19:53:45;3.43;;;3.13;;
3101;SDS011;1561;42.666;23.392;2022-10-03T19:56:17;5.07;;;2.67;;
3101;SDS011;1561;42.666;23.392;2022-10-03T19:58:46;3.27;;;2.80;;
3101;SDS011;1561;42.666;23.392;2022-10-03T20:01:23;5.90;;;2.83;;
3101;SDS011;1561;42.666;23.392;2022-10-03T20:03:52;3.73;;;2.80;;
3101;SDS011;1561;42.666;23.392;2022-10-03T20:06:22;2.67;;;2.47;;
3101;SDS011;1561;42.666;23.392;2022-10-03T20:08:54;4.53;;;2.90;;
3101;SDS011;1561;42.666;23.392;2022-10-03T20:11:27;2.73;;;2.53;;
3101;SDS011;1561;42.666;23.392;2022-10-03T20:14:02;3.30;;;2.90;;
3101;SDS011;1561;42.666;23.392;2022-10-03T20:16:32;2.80;;;2.60;;
3101;SDS011;1561;42.666;23.392;2022-10-03T20:19:07;4.60;;;3.23;;
3101;SDS011;1561;42.666;23.392;2022-10-03T20:21:37;3.80;;;3.40;;
3101;SDS011;1561;42.666;23.392;2022-10-03T20:24:08;3.23;;;2.63;;
3101;SDS011;1561;42.666;23.392;2022-10-03T20:26:42;3.07;;;2.87;;
3101;SDS011;1561;42.666;23.392;2022-10-03T20:29:23;3.33;;;2.43;;
3101;SDS011;1561;42.666;23.392;2022-10-03T20:31:57;2.43;;;2.30;;
3101;SDS011;1561;42.666;23.392;2022-10-03T20:34:26;4.53;;;2.50;;
3101;SDS011;1561;42.666;23.392;2022-10-03T20:36:55;4.07;;;2.33;;
3101;SDS011;1561;42.666;23.392;2022-10-03T20:39:35;4.53;;;2.50;;
3101;SDS011;1561;42.666;23.392;2022-10-03T20:42:09;3.30;;;2.60;;
3101;SDS011;1561;42.666;23.392;2022-10-03T20:44:54;2.53;;;2.17;;
3101;SDS011;1561;42.666;23.392;2022-10-03T20:47:30;4.83;;;2.50;;
3101;SDS011;1561;42.666;23.392;2022-10-03T20:50:06;6.50;;;2.77;;
3101;SDS011;1561;42.666;23.392;2022-10-03T20:52:47;2.17;;;1.97;;
3101;SDS011;1561;42.666;23.392;2022-10-03T20:55:22;5.50;;;2.80;;
3101;SDS011;1561;42.666;23.392;2022-10-03T20:58:02;3.87;;;2.63;;
3101;SDS011;1561;42.666;23.392;2022-10-03T21:00:41;2.30;;;2.20;;
3101;SDS011;1561;42.666;23.392;2022-10-03T21:03:13;3.10;;;2.47;;
3101;SDS011;1561;42.666;23.392;2022-10-03T21:05:48;2.77;;;2.43;;
3101;SDS011;1561;42.666;23.392;2022-10-03T21:08:18;3.40;;;2.50;;
3101;SDS011;1561;42.666;23.392;2022-10-03T21:10:50;3.10;;;2.77;;
3101;SDS011;1561;42.666;23.392;2022-10-03T21:13:22;4.90;;;2.50;;
3101;SDS011;1561;42.666;23.392;2022-10-03T21:15:59;2.90;;;2.70;;
3101;SDS011;1561;42.666;23.392;2022-10-03T21:18:31;3.30;;;3.00;;
3101;SDS011;1561;42.666;23.392;2022-10-03T21:21:05;3.90;;;2.90;;
3101;SDS011;1561;42.666;23.392;2022-10-03T21:23:40;2.43;;;2.23;;
3101;SDS011;1561;42.666;23.392;2022-10-03T21:26:16;2.77;;;2.57;;
3101;SDS011;1561;42.666;23.392;2022-10-03T21:28:50;5.30;;;2.70;;
3101;SDS011;1561;42.666;23.392;2022-10-03T21:31:43;3.53;;;2.83;;
3101;SDS011;1561;42.666;23.392;2022-10-03T21:34:18;3.10;;;2.90;;
3101;SDS011;1561;42.666;23.392;2022-10-03T21:36:55;2.90;;;2.70;;
3101;SDS011;1561;42.666;23.392;2022-10-03T21:39:34;3.40;;;3.10;;
3101;SDS011;1561;42.666;23.392;2022-10-03T21:42:17;4.70;;;3.27;;
3101;SDS011;1561;42.666;23.392;2022-10-03T21:44:57;2.90;;;2.70;;
3101;SDS011;1561;42.666;23.392;2022-10-03T21:47:37;3.83;;;3.00;;
3101;SDS011;1561;42.666;23.392;2022-10-03T21:50:12;5.33;;;3.30;;